createdAt,value
2018-12-04T00:02:06.229Z,58.90
2018-12-04T00:04:33.775Z,58.90
2018-12-04T00:07:01.854Z,58.90
2018-12-04T00:09:29.353Z,58.90
2018-12-04T00:11:56.849Z,58.90
2018-12-04T00:14:24.351Z,58.90
2018-12-04T00:16:51.871Z,58.90
2018-12-04T00:19:19.389Z,58.90
2018-12-04T00:21:46.885Z,58.90
2018-12-04T00:24:24.833Z,58.90
2018-12-04T00:26:52.914Z,59.00
2018-12-04T00:29:20.410Z,58.90
2018-12-04T00:31:47.922Z,59.00
2018-12-04T00:34:15.418Z,59.00
2018-12-04T00:37:05.434Z,59.10
2018-12-04T00:39:32.939Z,58.90
2018-12-04T00:42:00.444Z,59.00
2018-12-04T00:44:27.999Z,59.00
2018-12-04T00:46:55.485Z,59.10
2018-12-04T00:49:44.095Z,59.00
2018-12-04T00:52:11.590Z,59.00
2018-12-04T00:54:39.104Z,59.00
2018-12-04T00:57:06.591Z,59.00
2018-12-04T00:59:34.133Z,59.70
2018-12-04T01:02:01.651Z,59.10
2018-12-04T01:04:29.146Z,59.10
2018-12-04T01:06:56.640Z,59.10
2018-12-04T01:09:24.130Z,59.10
2018-12-04T01:11:51.626Z,59.10
2018-12-04T01:14:26.340Z,59.00
2018-12-04T01:16:53.834Z,59.10
2018-12-04T01:19:21.319Z,59.10
2018-12-04T01:21:48.848Z,59.70
2018-12-04T01:24:16.341Z,59.10
2018-12-04T01:27:05.166Z,59.40
2018-12-04T01:29:32.705Z,59.10
2018-12-04T01:32:00.201Z,59.10
2018-12-04T01:34:27.732Z,59.10
2018-12-04T01:36:55.214Z,59.20
2018-12-04T01:39:44.740Z,59.10
2018-12-04T01:42:12.234Z,59.70
2018-12-04T01:44:39.754Z,59.20
2018-12-04T01:47:07.597Z,59.20
2018-12-04T01:49:35.108Z,59.20
2018-12-04T01:52:02.600Z,59.20
2018-12-04T01:54:30.110Z,59.20
2018-12-04T01:56:57.604Z,59.20
2018-12-04T01:59:25.105Z,59.10
2018-12-04T02:01:52.615Z,59.30
2018-12-04T02:04:30.675Z,59.30
2018-12-04T02:06:58.193Z,59.20
2018-12-04T02:09:25.746Z,59.30
2018-12-04T02:11:53.242Z,59.40
2018-12-04T02:14:20.757Z,59.70
2018-12-04T02:17:09.202Z,59.20
2018-12-04T02:19:36.722Z,59.30
2018-12-04T02:22:04.217Z,59.30
2018-12-04T02:24:31.716Z,59.30
2018-12-04T02:26:59.230Z,59.40
2018-12-04T02:29:47.844Z,59.30
2018-12-04T02:32:15.371Z,59.30
2018-12-04T02:34:42.894Z,59.30
2018-12-04T02:37:10.387Z,59.40
2018-12-04T02:39:37.898Z,59.40
2018-12-04T02:42:05.394Z,60.00
2018-12-04T02:44:32.897Z,59.30
2018-12-04T02:47:00.403Z,59.40
2018-12-04T02:49:27.894Z,59.30
2018-12-04T02:51:55.400Z,59.30
2018-12-04T02:54:33.534Z,59.40
2018-12-04T02:57:01.038Z,59.40
2018-12-04T02:59:28.530Z,59.50
2018-12-04T03:01:56.034Z,59.50
2018-12-04T03:04:23.526Z,59.50
2018-12-04T03:07:12.022Z,59.60
2018-12-04T03:09:39.511Z,59.50
2018-12-04T03:12:07.165Z,59.50
2018-12-04T03:14:34.667Z,59.40
2018-12-04T03:17:02.161Z,58.90
2018-12-04T03:19:29.658Z,59.40
2018-12-04T03:21:57.168Z,59.40
2018-12-04T03:24:24.666Z,59.50
2018-12-04T03:26:52.160Z,59.40
2018-12-04T03:29:19.791Z,59.60
2018-12-04T03:31:47.277Z,59.40
2018-12-04T03:34:14.765Z,59.50
2018-12-04T03:36:42.273Z,59.40
2018-12-04T03:39:09.773Z,59.50
2018-12-04T03:41:37.281Z,59.50
2018-12-04T03:44:04.799Z,59.50
2018-12-04T03:46:47.794Z,59.60
2018-12-04T03:49:15.307Z,59.50
2018-12-04T03:51:42.807Z,59.40
2018-12-04T03:54:10.739Z,59.40
2018-12-04T03:56:38.248Z,59.40
2018-12-04T03:59:20.581Z,59.40
2018-12-04T04:01:48.084Z,59.40
2018-12-04T04:04:15.960Z,59.50
2018-12-04T04:06:43.454Z,59.50
2018-12-04T04:09:10.968Z,59.50
2018-12-04T04:11:38.458Z,59.50
2018-12-04T04:14:05.950Z,59.60
2018-12-04T04:16:33.454Z,59.60
2018-12-04T04:19:00.954Z,59.50
2018-12-04T04:21:28.443Z,59.50
2018-12-04T04:23:55.955Z,59.50
2018-12-04T04:26:23.824Z,59.50
2018-12-04T04:28:51.379Z,59.50
2018-12-04T04:31:18.889Z,59.60
2018-12-04T04:33:46.387Z,59.50
2018-12-04T04:36:13.888Z,59.50
2018-12-04T04:39:02.684Z,59.60
2018-12-04T04:41:30.232Z,60.20
2018-12-04T04:43:57.788Z,59.60
2018-12-04T04:46:25.310Z,59.50
2018-12-04T04:48:52.806Z,60.30
2018-12-04T04:51:20.306Z,59.60
2018-12-04T04:53:47.831Z,59.50
2018-12-04T04:56:15.331Z,59.50
2018-12-04T04:58:42.820Z,59.50
2018-12-04T05:01:10.338Z,59.50
2018-12-04T05:03:48.528Z,59.50
2018-12-04T05:06:16.042Z,59.40
2018-12-04T05:08:43.539Z,59.50
2018-12-04T05:11:11.050Z,59.60
2018-12-04T05:13:38.548Z,59.60
2018-12-04T05:16:06.038Z,59.50
2018-12-04T05:18:40.784Z,59.60
2018-12-04T05:21:08.987Z,59.50
2018-12-04T05:23:36.606Z,59.50
2018-12-04T05:26:04.112Z,59.60
2018-12-04T05:28:31.608Z,59.50
2018-12-04T05:30:59.095Z,59.60
2018-12-04T05:33:26.614Z,59.60
2018-12-04T05:35:54.099Z,59.50
2018-12-04T05:38:21.591Z,59.50
2018-12-04T05:40:49.098Z,59.60
2018-12-04T05:43:24.546Z,59.60
2018-12-04T05:45:52.096Z,59.60
2018-12-04T05:48:19.618Z,59.60
2018-12-04T05:50:47.114Z,59.60
2018-12-04T05:53:26.456Z,59.60
2018-12-04T05:56:04.351Z,59.40
2018-12-04T05:58:31.862Z,59.60
2018-12-04T06:00:59.358Z,59.50
2018-12-04T06:03:27.711Z,59.20
2018-12-04T06:05:55.217Z,59.10
2018-12-04T06:08:43.648Z,59.10
2018-12-04T06:11:11.162Z,58.90
2018-12-04T06:13:39.139Z,58.80
2018-12-04T06:16:06.631Z,58.70
2018-12-04T06:18:34.131Z,58.60
2018-12-04T06:21:01.633Z,58.60
2018-12-04T06:23:29.128Z,58.80
2018-12-04T06:25:56.643Z,58.70
2018-12-04T06:28:24.137Z,58.70
2018-12-04T06:30:51.684Z,58.70
2018-12-04T06:33:27.963Z,59.00
2018-12-04T06:35:55.462Z,59.10
2018-12-04T06:38:22.990Z,59.20
2018-12-04T06:40:50.486Z,59.40
2018-12-04T06:43:17.978Z,59.40
2018-12-04T06:45:45.478Z,59.50
2018-12-04T06:48:20.037Z,59.40
2018-12-04T06:50:47.529Z,59.50
2018-12-04T06:53:15.029Z,59.50
2018-12-04T06:55:42.523Z,59.60
2018-12-04T06:58:10.015Z,59.90
2018-12-04T07:00:37.526Z,59.60
2018-12-04T07:03:05.058Z,59.60
2018-12-04T07:05:32.558Z,59.50
2018-12-04T07:08:00.061Z,59.50
2018-12-04T07:10:27.567Z,59.60
2018-12-04T07:13:04.080Z,59.50
2018-12-04T07:15:31.581Z,59.50
2018-12-04T07:17:59.121Z,59.50
2018-12-04T07:20:26.622Z,59.60
2018-12-04T07:22:54.137Z,59.60
2018-12-04T07:25:21.636Z,59.60
2018-12-04T07:27:49.142Z,59.50
2018-12-04T07:30:16.659Z,59.50
2018-12-04T07:32:44.165Z,58.90
2018-12-04T07:35:11.661Z,58.40
2018-12-04T07:37:39.181Z,58.10
2018-12-04T07:40:06.677Z,57.70
2018-12-04T07:42:34.170Z,57.70
2018-12-04T07:45:01.674Z,57.50
2018-12-04T07:47:29.167Z,57.50
2018-12-04T07:49:56.662Z,57.50
2018-12-04T07:52:24.178Z,57.30
2018-12-04T07:54:51.680Z,57.10
2018-12-04T07:57:19.168Z,57.20
2018-12-04T07:59:46.671Z,57.20
2018-12-04T08:02:14.166Z,57.20
2018-12-04T08:05:08.486Z,57.10
2018-12-04T08:07:35.995Z,57.30
2018-12-04T08:10:04.713Z,57.50
2018-12-04T08:12:32.741Z,57.50
2018-12-04T08:15:00.237Z,57.50
2018-12-04T08:17:27.742Z,57.50
2018-12-04T08:19:55.254Z,57.50
2018-12-04T08:22:22.752Z,57.70
2018-12-04T08:24:50.566Z,57.70
2018-12-04T08:27:18.128Z,57.70
2018-12-04T08:29:45.626Z,57.70
2018-12-04T08:32:13.858Z,57.80
2018-12-04T08:34:41.362Z,58.50
2018-12-04T08:40:33.972Z,57.50
2018-12-04T08:48:50.645Z,57.90
2018-12-04T08:51:18.137Z,57.60
2018-12-04T08:53:45.632Z,57.40
2018-12-04T08:56:13.151Z,57.40
2018-12-04T08:59:21.636Z,57.30
2018-12-04T09:01:49.150Z,57.10
2018-12-04T09:04:16.702Z,57.10
2018-12-04T09:06:44.224Z,57.20
2018-12-04T09:09:47.587Z,57.10
2018-12-04T09:12:15.106Z,57.10
2018-12-04T09:14:42.655Z,57.10
2018-12-04T09:17:10.158Z,57.10
2018-12-04T09:20:13.276Z,57.10
2018-12-04T09:22:40.903Z,57.20
2018-12-04T09:28:31.671Z,57.20
2018-12-04T09:30:59.273Z,56.90
2018-12-04T09:33:29.802Z,56.70
2018-12-04T09:46:53.908Z,56.80
2018-12-04T09:49:21.419Z,56.80
2018-12-04T09:52:15.455Z,56.70
2018-12-04T10:01:43.956Z,56.60
2018-12-04T10:07:56.578Z,56.30
2018-12-04T10:14:13.795Z,56.60
2018-12-04T10:16:54.862Z,56.50
2018-12-04T10:22:43.570Z,56.30
2018-12-04T10:28:48.362Z,55.90
2018-12-04T10:34:37.082Z,55.80
2018-12-04T10:37:12.466Z,55.80
2018-12-04T10:43:02.157Z,55.90
2018-12-04T10:45:29.646Z,55.70
2018-12-04T10:51:18.344Z,55.70
2018-12-04T10:53:45.838Z,55.80
2018-12-04T10:59:35.306Z,56.00
2018-12-04T11:02:08.451Z,55.90
2018-12-04T11:04:56.983Z,55.90
2018-12-04T11:07:24.487Z,55.80
2018-12-04T11:09:52.326Z,55.50
2018-12-04T11:12:19.833Z,54.80
2018-12-04T11:14:47.326Z,54.70
2018-12-04T11:17:14.847Z,54.90
2018-12-04T11:19:42.345Z,54.90
2018-12-04T11:22:09.837Z,54.90
2018-12-04T11:24:37.340Z,54.70
2018-12-04T11:27:04.841Z,54.90
2018-12-04T11:41:18.650Z,55.50
2018-12-04T11:43:46.143Z,55.20
2018-12-04T11:46:13.639Z,55.20
2018-12-04T11:52:10.236Z,55.30
2018-12-04T11:57:58.782Z,55.40
2018-12-04T12:04:10.073Z,55.10
2018-12-04T12:09:58.858Z,55.50
2018-12-04T12:12:30.162Z,55.80
2018-12-04T12:18:29.165Z,56.50
2018-12-04T12:20:56.667Z,56.00
2018-12-04T12:23:24.155Z,55.90
2018-12-04T12:25:51.664Z,55.90
2018-12-04T12:28:19.150Z,55.90
2018-12-04T12:30:46.642Z,55.90
2018-12-04T12:33:14.684Z,56.00
2018-12-04T12:35:42.198Z,56.10
2018-12-04T12:38:09.697Z,56.10
2018-12-04T12:40:37.210Z,55.90
2018-12-04T12:43:04.707Z,55.90
2018-12-04T12:45:32.199Z,55.80
2018-12-04T12:47:59.706Z,55.60
2018-12-04T12:50:27.200Z,55.50
2018-12-04T12:52:54.692Z,55.70
2018-12-04T12:55:22.211Z,55.70
2018-12-04T12:57:49.706Z,55.80
2018-12-04T13:00:17.218Z,55.90
2018-12-04T13:02:44.734Z,55.90
2018-12-04T13:05:12.231Z,55.90
2018-12-04T13:07:39.732Z,55.70
2018-12-04T13:10:08.377Z,55.50
2018-12-04T13:12:35.867Z,54.20
2018-12-04T13:15:04.096Z,53.30
2018-12-04T13:17:31.600Z,51.90
2018-12-04T13:19:59.099Z,50.70
2018-12-04T13:22:26.605Z,51.80
2018-12-04T13:24:54.286Z,50.40
2018-12-04T13:27:29.707Z,50.50
2018-12-04T13:29:57.236Z,50.20
2018-12-04T13:32:24.783Z,50.50
2018-12-04T13:34:52.287Z,50.70
2018-12-04T13:37:19.802Z,50.90
2018-12-04T13:40:00.260Z,51.10
2018-12-04T13:42:27.771Z,51.30
2018-12-04T13:44:55.404Z,51.40
2018-12-04T13:50:44.395Z,51.90
2018-12-04T13:56:41.439Z,51.70
2018-12-04T13:59:09.019Z,52.40
2018-12-04T14:05:00.508Z,52.90
2018-12-04T14:07:28.045Z,53.20
2018-12-04T14:13:16.536Z,53.60
2018-12-04T14:15:44.050Z,53.60
2018-12-04T14:18:11.664Z,53.80
2018-12-04T14:20:39.175Z,53.90
2018-12-04T14:23:06.667Z,54.00
2018-12-04T14:25:55.251Z,54.10
2018-12-04T14:28:22.763Z,54.20
2018-12-04T14:30:50.259Z,54.10
2018-12-04T14:33:17.877Z,53.80
2018-12-04T14:35:45.380Z,54.00
2018-12-04T14:38:24.637Z,53.90
2018-12-04T14:40:52.394Z,54.10
2018-12-04T14:43:19.901Z,54.20
2018-12-04T14:45:47.441Z,54.20
2018-12-04T14:48:14.937Z,54.20
2018-12-04T14:50:52.962Z,54.30
2018-12-04T14:53:20.588Z,54.50
2018-12-04T14:55:48.184Z,54.50
2018-12-04T14:58:15.789Z,54.40
2018-12-04T15:00:43.294Z,54.50
2018-12-04T15:03:10.934Z,54.40
2018-12-04T15:05:38.563Z,54.50
2018-12-04T15:08:06.107Z,54.50
2018-12-04T15:10:33.721Z,54.50
2018-12-04T15:13:01.294Z,54.70
2018-12-04T15:15:28.833Z,54.70
2018-12-04T15:17:56.439Z,54.90
2018-12-04T15:20:24.157Z,54.90
2018-12-04T15:22:51.680Z,55.00
2018-12-04T15:25:19.170Z,55.00
2018-12-04T15:27:47.059Z,55.00
2018-12-04T15:30:14.661Z,55.00
2018-12-04T15:32:42.163Z,55.00
2018-12-04T15:35:09.673Z,55.00
2018-12-04T15:37:37.216Z,55.10
2018-12-04T15:40:05.843Z,55.10
2018-12-04T15:42:33.357Z,54.90
2018-12-04T15:45:01.001Z,54.90
2018-12-04T15:47:28.648Z,54.80
2018-12-04T15:49:56.290Z,54.90
2018-12-04T15:53:12.792Z,54.80
2018-12-04T15:55:40.429Z,55.00
2018-12-04T15:58:07.926Z,55.00
2018-12-04T16:03:57.639Z,54.90
2018-12-04T16:06:25.173Z,55.00
2018-12-04T16:08:52.674Z,55.00
2018-12-04T16:11:20.283Z,55.00
2018-12-04T16:14:02.520Z,55.00
2018-12-04T16:16:36.302Z,55.10
2018-12-04T16:19:03.832Z,55.10
2018-12-04T16:22:21.608Z,55.10
2018-12-04T16:24:49.118Z,55.30
2018-12-04T16:27:16.624Z,55.30
2018-12-04T16:33:05.267Z,55.60
2018-12-04T16:35:32.764Z,55.50
2018-12-04T16:38:00.251Z,55.60
2018-12-04T16:40:35.868Z,55.30
2018-12-04T16:43:17.074Z,55.10
2018-12-04T16:45:44.602Z,55.10
2018-12-04T16:48:25.384Z,54.90
2018-12-04T16:50:52.898Z,54.90
2018-12-04T16:53:21.734Z,54.90
2018-12-04T16:55:49.237Z,55.00
2018-12-04T16:58:16.758Z,54.80
2018-12-04T17:01:05.191Z,55.10
2018-12-04T17:03:33.037Z,55.10
2018-12-04T17:06:00.529Z,55.20
2018-12-04T17:08:28.145Z,55.10
2018-12-04T17:10:55.641Z,54.50
2018-12-04T17:13:23.146Z,55.20
2018-12-04T17:15:50.651Z,54.90
2018-12-04T17:18:18.179Z,55.10
2018-12-04T17:20:45.684Z,55.10
2018-12-04T17:23:13.188Z,54.90
2018-12-04T17:25:50.712Z,54.70
2018-12-04T17:28:18.223Z,54.70
2018-12-04T17:30:45.729Z,55.10
2018-12-04T17:33:13.305Z,54.90
2018-12-04T17:35:40.809Z,55.20
2018-12-04T17:38:08.297Z,55.10
2018-12-04T17:40:39.021Z,55.00
2018-12-04T17:43:06.587Z,54.80
2018-12-04T17:45:34.105Z,54.50
2018-12-04T17:48:01.673Z,54.30
2018-12-04T17:50:29.264Z,54.10
2018-12-04T17:52:56.774Z,53.90
2018-12-04T17:55:24.285Z,53.70
2018-12-04T17:57:51.783Z,53.70
2018-12-04T18:00:19.362Z,53.70
2018-12-04T18:02:46.887Z,53.70
2018-12-04T18:05:14.401Z,53.60
2018-12-04T18:07:41.897Z,53.60
2018-12-04T18:10:09.399Z,53.50
2018-12-04T18:12:36.896Z,53.60
2018-12-04T18:15:04.995Z,53.20
